Main page
METAR-TAF:

METAR-TAF

Airports :

Zaragoza Airport

Zaragoza, Spain

latitude: 41-40N, longitude: 001-01W, elevation: 263 m

Current weather observation

The report was made 36 minutes ago, at 08:30 UTC
Wind 13 kt from the Northwest, varying between West and North/Northwest
Temperature 21°C
Humidity 60%
Pressure 1020 hPa
Visibility 10 km or more
no clouds below 1500 m and no cumulonimbus

METAR: LEZG 150830Z 31013KT 280V340 CAVOK 21/13 Q1020

Time: 11:06 (09:06 UTC)

Forecast

The report was made 4 hours and 6 minutes ago, at 05:00 UTC
Forecast valid from 15 at 06 UTC to 16 at 06 UTC
Wind 9 kt from the West/Northwest
Visibility 10 km or more
Few clouds at a height of 5000 ft
Becoming
from 15 at 10 UTC to 15 at 12 UTC
Wind 3 kt from variable directions
Becoming
from 15 at 17 UTC to 15 at 20 UTC
Wind 7 kt from the East/Southeast

TAF: LEZG 150500Z 1506/1606 29009KT 9999 FEW050 TX33/1514Z TN17/1506Z BECMG 1510/1512 VRB03KT BECMG 1517/1520 11007KT

Weather observations and forecasts of more than 4000 airports (METAR and TAF reports).

The available stations are represented by yellow and red dots on the map.

Hover mouse over dot to see the name of the station.

Then click to see weather observations and forecasts.

To change the map : click on the green buttons with a black cross to zoom in, on the green button with a dash to zoom out, or on the green arrows for adjacent maps.


METAR-TAF: